Time,TemperatureF,DewpointF,PressureIn,WindDirection,WindDirectionDegrees,WindSpeedMPH,WindSpeedGustMPH,Humidity,HourlyPrecipIn,Conditions,Clouds,dailyrainin,SolarRadiationWatts/m^2,SoftwareType,DateUTC
2013-08-04 00:01:00,65.1,56.2,29.85,WNW,288,0.9,3.5,73,0.00,RA,BKN,0.00,0.0,WeatherDisplay:10.37,2013-08-04 04:01:00,
2013-08-04 00:07:00,64.9,56.5,29.85,WSW,247,0.0,0.0,74,0.00,RA,BKN,0.00,0.0,WeatherDisplay:10.37,2013-08-04 04:07:00,
2013-08-04 00:12:00,64.6,56.5,29.85,SSW,195,0.1,1.1,75,0.00,FEW,BKN,0.00,0.0,WeatherDisplay:10.37,2013-08-04 04:12:00,
2013-08-04 00:17:00,64.0,56.3,29.85,South,184,0.5,2.3,76,0.00,FEW,BKN,0.00,0.0,WeatherDisplay:10.37,2013-08-04 04:17:00,
2013-08-04 00:22:00,63.3,56.3,29.85,South,187,1.6,3.5,78,0.00,FEW,BKN,0.00,0.0,WeatherDisplay:10.37,2013-08-04 04:22:00,
2013-08-04 00:27:00,63.0,56.7,29.85,South,188,0.0,1.1,80,0.00,FEW,BKN,0.00,0.0,WeatherDisplay:10.37,2013-08-04 04:27:00,
2013-08-04 00:32:00,62.4,56.5,29.85,SSW,193,0.1,1.1,81,0.00,FEW,BKN,0.00,0.0,WeatherDisplay:10.37,2013-08-04 04:32:00,
2013-08-04 00:37:00,62.2,56.7,29.85,South,184,0.0,1.1,82,0.00,FEW,BKN,0.00,0.0,WeatherDisplay:10.37,2013-08-04 04:37:00,
2013-08-04 00:42:00,61.9,56.3,29.85,South,176,0.3,1.1,82,0.00,FEW,BKN,0.00,0.0,WeatherDisplay:10.37,2013-08-04 04:42:00,
2013-08-04 00:47:00,61.7,56.5,29.85,South,178,0.0,0.0,83,0.00,FEW,BKN,0.00,0.0,WeatherDisplay:10.37,2013-08-04 04:47:00,
2013-08-04 00:52:00,61.5,56.6,29.85,South,176,0.0,0.0,84,0.00,FEW,BKN,0.00,0.0,WeatherDisplay:10.37,2013-08-04 04:52:00,
2013-08-04 00:57:00,61.3,56.5,29.85,South,183,0.0,1.1,84,0.00,FEW,BKN,0.00,0.0,WeatherDisplay:10.37,2013-08-04 04:57:00,
2013-08-04 01:02:00,61.2,56.3,29.85,South,189,0.0,1.1,84,0.00,FEW,BKN,0.00,0.0,WeatherDisplay:10.37,2013-08-04 05:02:00,
2013-08-04 01:07:00,61.0,56.4,29.85,South,191,0.0,0.0,85,0.00,FEW,BKN,0.00,0.0,WeatherDisplay:10.37,2013-08-04 05:07:00,
2013-08-04 01:12:00,61.0,56.4,29.85,South,189,0.1,1.1,85,0.00,FEW,BKN,0.00,0.0,WeatherDisplay:10.37,2013-08-04 05:12:00,
2013-08-04 01:17:00,61.2,56.9,29.85,SW,226,0.0,0.0,86,0.00,FEW,BKN,0.00,0.0,WeatherDisplay:10.37,2013-08-04 05:17:00,
2013-08-04 01:22:00,60.8,56.6,29.85,SW,225,0.1,0.0,86,0.00,FEW,BKN,0.00,0.0,WeatherDisplay:10.37,2013-08-04 05:22:00,
2013-08-04 01:27:00,60.8,56.6,29.85,SSW,198,0.0,1.1,86,0.00,FEW,BKN,0.00,0.0,WeatherDisplay:10.37,2013-08-04 05:27:00,
2013-08-04 01:32:00,61.2,56.9,29.85,SSW,206,0.0,0.0,86,0.00,FEW,BKN,0.00,0.0,WeatherDisplay:10.37,2013-08-04 05:32:00,
2013-08-04 01:37:00,60.8,56.3,29.85,WSW,246,0.1,1.1,85,0.00,FEW,BKN,0.00,0.0,WeatherDisplay:10.37,2013-08-04 05:37:00,
2013-08-04 01:42:00,61.0,56.4,29.85,SW,218,0.0,1.1,85,0.00,FEW,BKN,0.00,0.0,WeatherDisplay:10.37,2013-08-04 05:42:00,
2013-08-04 01:47:00,61.0,56.4,29.85,WNW,292,0.1,2.3,85,0.00,FEW,BKN,0.00,0.0,WeatherDisplay:10.37,2013-08-04 05:47:00,
2013-08-04 01:52:00,61.0,56.4,29.85,WSW,257,0.3,1.1,85,0.00,FEW,BKN,0.00,0.0,WeatherDisplay:10.37,2013-08-04 05:52:00,
2013-08-04 01:57:00,60.6,55.8,29.85,South,179,0.1,1.1,84,0.00,FEW,BKN,0.00,0.0,WeatherDisplay:10.37,2013-08-04 05:57:00,
2013-08-04 02:02:00,61.0,56.4,29.85,SW,224,0.4,1.1,85,0.00,FEW,BKN,0.00,0.0,WeatherDisplay:10.37,2013-08-04 06:02:00,
2013-08-04 02:07:00,60.6,56.1,29.85,SSW,207,0.0,0.0,85,0.00,FEW,BKN,0.00,0.0,WeatherDisplay:10.37,2013-08-04 06:07:00,
2013-08-04 02:12:00,60.6,56.1,29.85,WSW,247,0.0,1.1,85,0.00,FEW,BKN,0.00,0.0,WeatherDisplay:10.37,2013-08-04 06:12:00,
2013-08-04 02:17:00,60.6,55.8,29.85,West,262,0.8,4.6,84,0.00,FEW,BKN,0.00,0.0,WeatherDisplay:10.37,2013-08-04 06:17:00,
2013-08-04 02:22:00,60.6,55.8,29.85,WNW,288,0.2,2.3,84,0.00,FEW,BKN,0.00,0.0,WeatherDisplay:10.37,2013-08-04 06:22:00,
2013-08-04 02:27:00,60.4,55.6,29.85,SSW,208,0.2,2.3,84,0.00,FEW,BKN,0.00,0.0,WeatherDisplay:10.37,2013-08-04 06:27:00,
2013-08-04 02:32:00,60.3,55.7,29.85,SW,229,0.2,2.3,85,0.00,FEW,BKN,0.00,0.0,WeatherDisplay:10.37,2013-08-04 06:32:00,
2013-08-04 02:37:00,60.4,55.9,29.85,SW,225,0.0,1.1,85,0.00,FEW,BKN,0.00,0.0,WeatherDisplay:10.37,2013-08-04 06:37:00,
2013-08-04 02:42:00,60.1,55.6,29.85,SSW,208,0.0,0.0,85,0.00,FEW,BKN,0.00,0.0,WeatherDisplay:10.37,2013-08-04 06:42:00,
2013-08-04 02:47:00,59.9,55.4,29.85,West,265,0.2,1.6,85,0.00,FEW,BKN,0.00,0.0,WeatherDisplay:10.37,2013-08-04 06:47:00,
2013-08-04 02:52:00,59.9,55.4,29.85,West,261,0.5,2.3,85,0.00,FEW,BKN,0.00,0.0,WeatherDisplay:10.37,2013-08-04 06:52:00,
2013-08-04 02:57:00,59.9,55.4,29.85,SW,214,0.3,1.1,85,0.00,FEW,BKN,0.00,0.0,WeatherDisplay:10.37,2013-08-04 06:57:00,
2013-08-04 03:02:00,59.9,55.4,29.85,North,11,0.5,1.1,85,0.00,FEW,BKN,0.00,0.0,WeatherDisplay:10.37,2013-08-04 07:02:00,
2013-08-04 03:07:00,59.9,55.4,29.85,WNW,300,0.7,5.6,85,0.00,FEW,BKN,0.00,0.0,WeatherDisplay:10.37,2013-08-04 07:07:00,
2013-08-04 03:12:00,60.1,55.6,29.85,WNW,284,1.1,3.5,85,0.00,FEW,BKN,0.00,0.0,WeatherDisplay:10.37,2013-08-04 07:12:00,
2013-08-04 03:17:00,60.1,55.6,29.85,WSW,237,1.8,4.6,85,0.00,FEW,BKN,0.00,0.0,WeatherDisplay:10.37,2013-08-04 07:17:00,
2013-08-04 03:22:00,60.4,55.6,29.85,West,276,1.1,5.8,84,0.00,FEW,BKN,0.00,0.0,WeatherDisplay:10.37,2013-08-04 07:22:00,
2013-08-04 03:27:00,60.4,55.6,29.85,NW,308,2.7,6.9,84,0.00,FEW,BKN,0.00,0.0,WeatherDisplay:10.37,2013-08-04 07:27:00,
2013-08-04 03:32:00,60.6,55.8,29.85,West,262,1.7,5.8,84,0.00,FEW,BKN,0.00,0.0,WeatherDisplay:10.37,2013-08-04 07:32:00,
2013-08-04 03:37:00,60.6,55.8,29.85,WSW,258,0.3,3.5,84,0.00,FEW,BKN,0.00,0.0,WeatherDisplay:10.37,2013-08-04 07:37:00,
2013-08-04 03:42:00,60.6,55.4,29.85,WSW,249,0.3,1.1,83,0.00,FEW,BKN,0.00,0.0,WeatherDisplay:10.37,2013-08-04 07:42:00,
2013-08-04 03:47:00,60.4,55.3,29.85,SW,227,0.7,6.9,83,0.00,FEW,BKN,0.00,0.0,WeatherDisplay:10.37,2013-08-04 07:47:00,
2013-08-04 03:52:00,60.4,55.6,29.85,SSW,211,0.0,1.1,84,0.00,FEW,BKN,0.00,0.0,WeatherDisplay:10.37,2013-08-04 07:52:00,
2013-08-04 03:57:00,60.3,55.4,29.85,WSW,248,0.3,1.1,84,0.00,FEW,BKN,0.00,0.0,WeatherDisplay:10.37,2013-08-04 07:57:00,
2013-08-04 04:02:00,59.9,55.4,29.85,SW,224,0.0,0.0,85,0.00,FEW,BKN,0.00,0.0,WeatherDisplay:10.37,2013-08-04 08:02:00,
2013-08-04 04:07:00,59.9,55.4,29.85,WSW,242,0.0,0.0,85,0.00,FEW,BKN,0.00,0.0,WeatherDisplay:10.37,2013-08-04 08:07:00,
2013-08-04 04:12:00,59.7,55.5,29.85,South,187,0.0,1.1,86,0.00,FEW,BKN,0.00,0.0,WeatherDisplay:10.37,2013-08-04 08:12:00,
2013-08-04 04:17:00,59.4,55.2,29.85,South,189,0.0,0.0,86,0.00,SCT,BKN,0.00,0.0,WeatherDisplay:10.37,2013-08-04 08:17:00,
2013-08-04 04:22:00,59.2,55.3,29.85,SSW,196,0.0,1.1,87,0.00,SCT,BKN,0.00,0.0,WeatherDisplay:10.37,2013-08-04 08:22:00,
2013-08-04 04:27:00,59.2,55.3,29.85,South,190,0.0,0.0,87,0.00,SCT,BKN,0.00,0.0,WeatherDisplay:10.37,2013-08-04 08:27:00,
2013-08-04 04:32:00,58.8,55.3,29.85,SSW,199,0.1,1.1,88,0.00,SCT,BKN,0.00,0.0,WeatherDisplay:10.37,2013-08-04 08:32:00,
2013-08-04 04:37:00,58.6,55.1,29.85,SW,216,0.0,0.0,88,0.00,SCT,BKN,0.00,0.0,WeatherDisplay:10.37,2013-08-04 08:37:00,
2013-08-04 04:42:00,58.3,54.7,29.85,SSW,194,0.0,0.0,88,0.00,SCT,BKN,0.00,0.0,WeatherDisplay:10.37,2013-08-04 08:42:00,
2013-08-04 04:47:00,58.5,55.2,29.85,SW,214,0.0,0.0,89,0.00,SCT,BKN,0.00,0.0,WeatherDisplay:10.37,2013-08-04 08:47:00,
2013-08-04 04:52:00,58.3,55.1,29.85,SSW,192,0.1,1.1,89,0.00,SCT,BKN,0.00,0.0,WeatherDisplay:10.37,2013-08-04 08:52:00,
2013-08-04 04:57:00,58.3,55.1,29.85,South,191,0.0,0.0,89,0.00,SCT,BKN,0.00,0.0,WeatherDisplay:10.37,2013-08-04 08:57:00,
2013-08-04 05:02:00,57.9,54.7,29.85,SSW,197,1.1,3.5,89,0.00,SCT,BKN,0.00,0.0,WeatherDisplay:10.37,2013-08-04 09:02:00,
2013-08-04 05:07:00,57.9,55.0,29.85,South,188,0.7,2.3,90,0.00,SCT,BKN,0.00,0.0,WeatherDisplay:10.37,2013-08-04 09:07:00,
2013-08-04 05:12:00,57.7,54.8,29.86,SSW,204,0.0,0.0,90,0.00,SCT,BKN,0.00,0.0,WeatherDisplay:10.37,2013-08-04 09:12:00,
2013-08-04 05:17:00,57.7,54.8,29.86,SSW,193,0.8,1.1,90,0.00,SCT,BKN,0.00,0.0,WeatherDisplay:10.37,2013-08-04 09:17:00,
2013-08-04 05:22:00,57.7,55.1,29.86,SSW,210,0.0,2.3,91,0.00,SCT,BKN,0.00,0.0,WeatherDisplay:10.37,2013-08-04 09:22:00,
2013-08-04 05:27:00,57.9,55.3,29.86,SSW,198,0.3,1.1,91,0.00,SCT,BKN,0.00,0.0,WeatherDisplay:10.37,2013-08-04 09:27:00,
2013-08-04 05:32:00,57.9,55.3,29.87,SSW,193,0.2,1.1,91,0.00,SCT,BKN,0.00,0.0,WeatherDisplay:10.37,2013-08-04 09:32:00,
2013-08-04 05:37:00,57.9,55.3,29.87,SSW,213,0.1,1.1,91,0.00,SCT,BKN,0.00,0.0,WeatherDisplay:10.37,2013-08-04 09:37:00,
2013-08-04 05:42:00,58.1,55.5,29.87,SSW,194,0.2,1.1,91,0.00,SCT,BKN,0.00,0.0,WeatherDisplay:10.37,2013-08-04 09:42:00,
2013-08-04 05:47:00,58.1,55.5,29.87,SSW,195,1.2,2.3,91,0.00,SCT,BKN,0.00,0.0,WeatherDisplay:10.37,2013-08-04 09:47:00,
2013-08-04 05:52:00,57.9,55.0,29.87,South,176,0.4,1.1,90,0.00,SCT,BKN,0.00,0.0,WeatherDisplay:10.37,2013-08-04 09:52:00,
2013-08-04 05:57:00,58.1,55.2,29.87,SSW,201,0.3,1.6,90,0.00,SCT,BKN,0.00,0.0,WeatherDisplay:10.37,2013-08-04 09:57:00,
2013-08-04 06:02:00,58.1,55.2,29.87,SSE,154,0.8,2.3,90,0.00,SCT,BKN,0.00,0.0,WeatherDisplay:10.37,2013-08-04 10:02:00,
2013-08-04 06:07:00,58.3,55.4,29.87,South,179,0.4,2.3,90,0.00,SCT,BKN,0.00,0.0,WeatherDisplay:10.37,2013-08-04 10:07:00,
2013-08-04 06:12:00,58.3,55.4,29.87,SW,215,0.3,1.1,90,0.00,SCT,BKN,0.00,0.0,WeatherDisplay:10.37,2013-08-04 10:12:00,
2013-08-04 06:17:00,58.3,55.4,29.87,SW,219,0.1,2.3,90,0.00,SCT,BKN,0.00,0.0,WeatherDisplay:10.37,2013-08-04 10:17:00,
2013-08-04 06:22:00,58.5,55.5,29.87,South,191,0.2,1.1,90,0.00,SCT,BKN,0.00,0.0,WeatherDisplay:10.37,2013-08-04 10:22:00,
2013-08-04 06:27:00,58.5,55.5,29.87,South,182,0.6,2.3,90,0.00,SCT,BKN,0.00,0.0,WeatherDisplay:10.37,2013-08-04 10:27:00,
2013-08-04 06:32:00,58.6,55.7,29.87,SSW,204,0.7,2.3,90,0.00,SCT,BKN,0.00,0.0,WeatherDisplay:10.37,2013-08-04 10:32:00,
2013-08-04 06:37:00,58.8,55.9,29.87,West,280,0.5,2.3,90,0.00,SCT,BKN,0.00,0.0,WeatherDisplay:10.37,2013-08-04 10:37:00,
2013-08-04 06:42:00,58.8,55.9,29.87,SW,231,0.1,2.3,90,0.00,SCT,BKN,0.00,0.0,WeatherDisplay:10.37,2013-08-04 10:42:00,
2013-08-04 06:47:00,58.8,55.9,29.87,SSW,202,0.5,1.1,90,0.00,SCT,BKN,0.00,0.0,WeatherDisplay:10.37,2013-08-04 10:47:00,
2013-08-04 06:52:00,58.8,55.9,29.87,WSW,253,0.3,1.1,90,0.00,SCT,BKN,0.00,0.0,WeatherDisplay:10.37,2013-08-04 10:52:00,
2013-08-04 06:57:00,59.0,56.1,29.87,SW,229,1.0,2.3,90,0.00,SCT,BKN,0.00,0.0,WeatherDisplay:10.37,2013-08-04 10:57:00,
2013-08-04 07:02:00,59.0,56.1,29.87,South,180,0.8,1.1,90,0.00,SCT,BKN,0.00,0.0,WeatherDisplay:10.37,2013-08-04 11:02:00,
2013-08-04 07:07:00,59.0,56.1,29.88,SSW,193,0.4,1.1,90,0.00,SCT,BKN,0.00,1.0,WeatherDisplay:10.37,2013-08-04 11:07:00,
2013-08-04 07:12:00,59.4,56.4,29.88,SSW,193,0.2,1.1,90,0.00,SCT,BKN,0.00,2.6,WeatherDisplay:10.37,2013-08-04 11:12:00,
2013-08-04 07:17:00,59.2,56.2,29.88,West,263,0.5,1.1,90,0.00,FEW,BKN,0.00,3.6,WeatherDisplay:10.37,2013-08-04 11:17:00,
2013-08-04 07:22:00,59.5,56.6,29.87,West,276,1.5,4.6,90,0.00,FEW,BKN,0.00,5.1,WeatherDisplay:10.37,2013-08-04 11:22:00,
2013-08-04 07:27:00,59.7,56.8,29.88,WSW,237,1.1,5.8,90,0.00,FEW,BKN,0.00,15.3,WeatherDisplay:10.37,2013-08-04 11:27:00,
2013-08-04 07:32:00,59.5,56.6,29.88,WSW,238,1.2,3.5,90,0.00,FEW,BKN,0.00,12.6,WeatherDisplay:10.37,2013-08-04 11:32:00,
2013-08-04 07:37:00,59.7,56.8,29.88,WSW,245,2.0,4.6,90,0.00,FEW,BKN,0.00,24.8,WeatherDisplay:10.37,2013-08-04 11:37:00,
2013-08-04 07:42:00,60.1,57.1,29.88,SW,232,1.0,4.6,90,0.00,FEW,BKN,0.00,28.6,WeatherDisplay:10.37,2013-08-04 11:42:00,
2013-08-04 07:47:00,60.1,57.1,29.88,South,177,0.4,1.1,90,0.00,FEW,BKN,0.00,21.1,WeatherDisplay:10.37,2013-08-04 11:47:00,
2013-08-04 07:52:00,60.4,57.2,29.88,NW,309,3.0,6.9,89,0.00,FEW,BKN,0.00,29.6,WeatherDisplay:10.37,2013-08-04 11:52:00,
2013-08-04 07:57:00,60.4,57.2,29.88,SW,227,0.3,6.9,89,0.00,FEW,BKN,0.00,25.4,WeatherDisplay:10.37,2013-08-04 11:57:00,
2013-08-04 08:02:00,60.8,57.5,29.88,WSW,245,1.5,3.5,89,0.00,FEW,BKN,0.00,25.5,WeatherDisplay:10.37,2013-08-04 12:02:00,
2013-08-04 08:07:00,61.0,57.7,29.88,NNW,348,2.4,4.3,89,0.00,FEW,BKN,0.00,22.8,WeatherDisplay:10.37,2013-08-04 12:07:00,
2013-08-04 08:12:00,61.0,57.7,29.89,WNW,287,2.9,2.9,89,0.00,FEW,BKN,0.00,27.0,WeatherDisplay:10.37,2013-08-04 12:12:00,
2013-08-04 08:17:00,61.3,58.1,29.89,WSW,249,0.3,3.5,89,0.00,FEW,BKN,0.00,52.4,WeatherDisplay:10.37,2013-08-04 12:17:00,
2013-08-04 08:22:00,61.9,58.3,29.89,West,278,0.6,4.6,88,0.00,FEW,BKN,0.00,70.1,WeatherDisplay:10.37,2013-08-04 12:22:00,
2013-08-04 08:27:00,62.1,58.5,29.89,SW,223,1.2,2.3,88,0.00,FEW,BKN,0.00,71.0,WeatherDisplay:10.37,2013-08-04 12:27:00,
2013-08-04 08:32:00,62.2,58.3,29.89,SSW,195,0.5,1.1,87,0.00,FEW,BKN,0.00,71.5,WeatherDisplay:10.37,2013-08-04 12:32:00,
2013-08-04 08:37:00,62.2,58.3,29.89,SW,231,0.8,5.8,87,0.00,FEW,BKN,0.00,128.2,WeatherDisplay:10.37,2013-08-04 12:37:00,
2013-08-04 08:42:00,63.1,58.9,29.89,WNW,302,4.4,4.6,86,0.00,FEW,BKN,0.00,107.3,WeatherDisplay:10.37,2013-08-04 12:42:00,
2013-08-04 08:47:00,63.3,59.1,29.89,West,277,2.9,5.8,86,0.00,FEW,BKN,0.00,80.6,WeatherDisplay:10.37,2013-08-04 12:47:00,
2013-08-04 08:52:00,63.7,59.1,29.89,WNW,284,2.2,5.8,85,0.00,FEW,BKN,0.00,150.0,WeatherDisplay:10.37,2013-08-04 12:52:00,
2013-08-04 08:57:00,64.2,59.6,29.89,NW,309,3.8,5.6,85,0.00,FEW,BKN,0.00,163.0,WeatherDisplay:10.37,2013-08-04 12:57:00,
2013-08-04 09:02:00,64.4,59.5,29.89,WNW,288,1.9,8.1,84,0.00,BKN,,0.00,287.5,WeatherDisplay:10.37,2013-08-04 13:02:00,
2013-08-04 09:07:00,64.6,59.3,29.89,West,276,5.5,9.2,83,0.00,BKN,,0.00,417.6,WeatherDisplay:10.37,2013-08-04 13:07:00,
2013-08-04 09:13:00,65.1,59.8,29.89,NW,305,5.2,8.1,83,0.00,BKN,,0.00,152.9,WeatherDisplay:10.37,2013-08-04 13:13:00,
2013-08-04 09:18:00,65.1,59.1,29.89,West,270,4.8,8.1,81,0.00,BKN,,0.00,455.6,WeatherDisplay:10.37,2013-08-04 13:18:00,
2013-08-04 09:23:00,65.5,59.5,29.89,West,262,3.2,6.9,81,0.00,BKN,,0.00,466.2,WeatherDisplay:10.37,2013-08-04 13:23:00,
2013-08-04 09:28:00,66.4,60.0,29.89,NNW,344,5.8,9.2,80,0.00,BKN,,0.00,355.6,WeatherDisplay:10.37,2013-08-04 13:28:00,
2013-08-04 09:33:00,66.7,59.7,29.89,WNW,296,2.6,5.8,78,0.00,BKN,,0.00,354.6,WeatherDisplay:10.37,2013-08-04 13:33:00,
2013-08-04 09:38:00,66.6,59.1,29.89,WNW,291,2.3,5.8,77,0.00,BKN,,0.00,109.7,WeatherDisplay:10.37,2013-08-04 13:38:00,
2013-08-04 09:43:00,66.0,59.0,29.90,WNW,287,3.2,6.9,78,0.00,BKN,,0.00,59.2,WeatherDisplay:10.37,2013-08-04 13:43:00,
2013-08-04 09:48:00,65.3,58.3,29.89,WNW,292,3.3,6.9,78,0.00,BKN,,0.00,316.1,WeatherDisplay:10.37,2013-08-04 13:48:00,
2013-08-04 09:53:00,65.8,58.8,29.89,WNW,284,2.3,4.6,78,0.00,BKN,,0.00,220.8,WeatherDisplay:10.37,2013-08-04 13:53:00,
2013-08-04 09:57:00,66.0,57.9,29.90,WNW,293,5.6,8.1,75,0.00,BKN,,0.00,114.2,WeatherDisplay:10.37,2013-08-04 13:57:00,
2013-08-04 10:03:00,66.0,58.2,29.90,WNW,298,5.1,10.4,76,0.00,BKN,,0.00,157.7,WeatherDisplay:10.37,2013-08-04 14:03:00,
2013-08-04 10:08:00,65.5,57.7,29.91,NW,306,6.9,10.4,76,0.00,BKN,,0.00,146.3,WeatherDisplay:10.37,2013-08-04 14:08:00,
2013-08-04 10:13:00,65.7,57.9,29.91,WNW,292,3.1,6.9,76,0.00,BKN,,0.00,194.9,WeatherDisplay:10.37,2013-08-04 14:13:00,
2013-08-04 10:18:00,65.5,57.7,29.91,WNW,299,4.5,7.5,76,0.00,BKN,,0.00,173.7,WeatherDisplay:10.37,2013-08-04 14:18:00,
2013-08-04 10:23:00,65.8,58.1,29.91,NNW,327,6.1,8.1,76,0.00,BKN,,0.00,499.7,WeatherDisplay:10.37,2013-08-04 14:23:00,
2013-08-04 10:28:00,66.4,58.9,29.91,NNW,331,5.0,9.2,77,0.00,BKN,,0.00,751.1,WeatherDisplay:10.37,2013-08-04 14:28:00,
2013-08-04 10:33:00,67.6,59.4,29.91,NW,313,3.3,9.2,75,0.00,BKN,,0.00,732.5,WeatherDisplay:10.37,2013-08-04 14:33:00,
2013-08-04 10:38:00,68.5,58.8,29.91,NW,306,7.7,15.0,71,0.00,BKN,,0.00,712.5,WeatherDisplay:10.37,2013-08-04 14:38:00,
2013-08-04 10:43:00,68.7,57.3,29.91,WNW,303,6.7,9.2,67,0.00,BKN,,0.00,725.2,WeatherDisplay:10.37,2013-08-04 14:43:00,
2013-08-04 10:47:00,68.7,57.3,29.91,WNW,295,5.6,11.5,67,0.00,BKN,,0.00,760.8,WeatherDisplay:10.37,2013-08-04 14:47:00,
2013-08-04 10:53:00,68.5,55.0,29.91,WNW,287,8.9,16.1,62,0.00,BKN,,0.00,733.8,WeatherDisplay:10.37,2013-08-04 14:53:00,
2013-08-04 10:58:00,69.1,56.8,29.91,NW,312,7.8,13.8,65,0.00,BKN,,0.00,856.2,WeatherDisplay:10.37,2013-08-04 14:58:00,
2013-08-04 11:02:00,68.5,54.1,29.91,WNW,284,9.3,13.8,60,0.00,BKN,,0.00,176.4,WeatherDisplay:10.37,2013-08-04 15:02:00,
2013-08-04 11:08:00,69.1,55.1,29.92,NW,304,9.4,13.8,61,0.00,BKN,,0.00,874.9,WeatherDisplay:10.37,2013-08-04 15:08:00,
2013-08-04 11:13:00,69.4,55.4,29.91,WNW,300,8.7,13.7,61,0.00,BKN,,0.00,915.9,WeatherDisplay:10.37,2013-08-04 15:13:00,
2013-08-04 11:18:00,69.8,55.7,29.92,NW,313,6.5,11.5,61,0.00,BKN,,0.00,515.2,WeatherDisplay:10.37,2013-08-04 15:18:00,
2013-08-04 11:23:00,69.4,55.9,29.92,NW,308,7.3,12.7,62,0.00,BKN,,0.00,896.8,WeatherDisplay:10.37,2013-08-04 15:23:00,
2013-08-04 11:28:00,69.8,55.7,29.92,WNW,285,4.4,10.4,61,0.00,BKN,,0.00,977.4,WeatherDisplay:10.37,2013-08-04 15:28:00,
2013-08-04 11:33:00,70.3,55.8,29.92,West,281,5.7,9.2,60,0.00,BKN,,0.00,237.3,WeatherDisplay:10.37,2013-08-04 15:33:00,
2013-08-04 11:38:00,70.2,55.2,29.92,NNW,328,6.8,13.8,59,0.00,BKN,,0.00,203.0,WeatherDisplay:10.37,2013-08-04 15:38:00,
2013-08-04 11:42:00,69.4,55.4,29.92,WNW,285,7.6,10.4,61,0.00,BKN,,0.00,1085.2,WeatherDisplay:10.37,2013-08-04 15:42:00,
2013-08-04 11:47:00,68.7,54.7,29.92,WNW,299,8.5,12.7,61,0.00,BKN,,0.00,1004.8,WeatherDisplay:10.37,2013-08-04 15:47:00,
2013-08-04 11:53:00,69.6,55.6,29.92,NW,311,8.7,13.8,61,0.00,BKN,,0.00,987.5,WeatherDisplay:10.37,2013-08-04 15:53:00,
2013-08-04 11:58:00,70.3,56.2,29.92,NNW,329,6.5,10.4,61,0.00,BKN,,0.00,683.1,WeatherDisplay:10.37,2013-08-04 15:58:00,
2013-08-04 12:02:00,70.0,54.5,29.92,NNW,330,6.7,11.5,58,0.00,BKN,,0.00,318.2,WeatherDisplay:10.37,2013-08-04 16:02:00,
2013-08-04 12:08:00,69.6,55.1,29.92,WNW,293,6.9,11.5,60,0.00,BKN,,0.00,631.5,WeatherDisplay:10.37,2013-08-04 16:08:00,
2013-08-04 12:13:00,70.0,54.5,29.92,WNW,285,6.3,9.2,58,0.00,BKN,,0.00,1150.0,WeatherDisplay:10.37,2013-08-04 16:13:00,
2013-08-04 12:18:00,70.5,55.0,29.92,NNW,327,5.6,10.4,58,0.00,BKN,,0.00,361.5,WeatherDisplay:10.37,2013-08-04 16:18:00,
2013-08-04 12:23:00,70.2,54.7,29.92,NW,317,6.8,10.4,58,0.00,BKN,,0.00,1050.8,WeatherDisplay:10.37,2013-08-04 16:23:00,
2013-08-04 12:28:00,70.7,55.2,29.92,West,273,7.1,9.2,58,0.00,BKN,,0.00,1201.6,WeatherDisplay:10.37,2013-08-04 16:28:00,
2013-08-04 12:33:00,70.7,54.7,29.92,NNW,348,9.1,13.8,57,0.00,BKN,,0.00,388.6,WeatherDisplay:10.37,2013-08-04 16:33:00,
2013-08-04 12:38:00,69.6,53.7,29.92,WNW,298,8.7,12.7,57,0.00,BKN,,0.00,238.6,WeatherDisplay:10.37,2013-08-04 16:38:00,
2013-08-04 12:43:00,70.0,55.0,29.92,WNW,300,4.6,9.2,59,0.00,BKN,,0.00,1126.2,WeatherDisplay:10.37,2013-08-04 16:43:00,
2013-08-04 12:48:00,70.5,53.6,29.92,NW,317,7.6,10.4,55,0.00,BKN,,0.00,1068.1,WeatherDisplay:10.37,2013-08-04 16:48:00,
2013-08-04 12:53:00,71.4,56.8,29.92,NW,321,3.8,8.1,60,0.00,BKN,,0.00,379.0,WeatherDisplay:10.37,2013-08-04 16:53:00,
2013-08-04 12:58:00,71.4,54.4,29.92,WNW,300,8.7,11.5,55,0.00,BKN,,0.00,1193.3,WeatherDisplay:10.37,2013-08-04 16:58:00,
2013-08-04 13:03:00,72.1,56.1,29.91,WNW,288,5.6,9.2,57,0.00,BKN,,0.00,1248.9,WeatherDisplay:10.37,2013-08-04 17:03:00,
2013-08-04 13:08:00,72.1,53.0,29.92,West,270,9.0,15.0,51,0.00,BKN,,0.00,1359.2,WeatherDisplay:10.37,2013-08-04 17:08:00,
2013-08-04 13:13:00,71.2,53.7,29.92,WNW,289,7.4,12.7,54,0.00,BKN,,0.00,364.8,WeatherDisplay:10.37,2013-08-04 17:13:00,
2013-08-04 13:18:00,70.5,55.0,29.92,WNW,282,6.9,9.2,58,0.00,BKN,,0.00,312.0,WeatherDisplay:10.37,2013-08-04 17:18:00,
2013-08-04 13:23:00,70.9,54.9,29.92,NNW,329,7.7,8.6,57,0.00,BKN,,0.00,238.5,WeatherDisplay:10.37,2013-08-04 17:23:00,
2013-08-04 13:28:00,70.3,53.9,29.92,WNW,289,7.9,15.0,56,0.00,BKN,,0.00,1187.0,WeatherDisplay:10.37,2013-08-04 17:28:00,
2013-08-04 13:33:00,72.0,55.4,29.92,NNW,335,7.8,12.7,56,0.00,BKN,,0.00,1353.3,WeatherDisplay:10.37,2013-08-04 17:33:00,
2013-08-04 13:38:00,72.9,55.2,29.92,WNW,295,5.6,10.4,54,0.00,BKN,,0.00,319.2,WeatherDisplay:10.37,2013-08-04 17:38:00,
2013-08-04 13:43:00,71.2,52.7,29.92,West,277,8.8,13.8,52,0.00,BKN,,0.00,1377.8,WeatherDisplay:10.37,2013-08-04 17:43:00,
2013-08-04 13:48:00,71.6,54.6,29.92,NNW,339,6.7,10.4,55,0.00,BKN,,0.00,840.0,WeatherDisplay:10.37,2013-08-04 17:48:00,
2013-08-04 13:53:00,71.6,53.0,29.92,West,276,7.8,11.5,52,0.00,BKN,,0.00,1241.5,WeatherDisplay:10.37,2013-08-04 17:53:00,
2013-08-04 13:58:00,70.9,52.4,29.92,NNW,339,8.9,13.8,52,0.00,BKN,,0.00,1190.2,WeatherDisplay:10.37,2013-08-04 17:58:00,
2013-08-04 14:03:00,71.1,53.6,29.91,WNW,303,8.6,13.8,54,0.00,BKN,,0.00,1147.1,WeatherDisplay:10.37,2013-08-04 18:03:00,
2013-08-04 14:08:00,72.3,55.7,29.92,NW,310,5.7,11.5,56,0.00,BKN,,0.00,1157.1,WeatherDisplay:10.37,2013-08-04 18:08:00,
2013-08-04 14:13:00,71.8,53.7,29.92,WNW,293,10.3,15.0,53,0.00,BKN,,0.00,1139.9,WeatherDisplay:10.37,2013-08-04 18:13:00,
2013-08-04 14:18:00,72.5,53.9,29.92,NW,320,11.5,19.6,52,0.00,BKN,,0.00,1212.5,WeatherDisplay:10.37,2013-08-04 18:18:00,
2013-08-04 14:23:00,72.1,53.0,29.92,WNW,296,9.9,15.0,51,0.00,BKN,,0.00,402.0,WeatherDisplay:10.37,2013-08-04 18:23:00,
2013-08-04 14:28:00,71.4,52.9,29.92,WNW,297,9.0,11.5,52,0.00,BKN,,0.00,483.7,WeatherDisplay:10.37,2013-08-04 18:28:00,
2013-08-04 14:33:00,72.3,55.2,29.92,WNW,302,6.0,11.5,55,0.00,BKN,,0.00,1354.1,WeatherDisplay:10.37,2013-08-04 18:33:00,
2013-08-04 14:38:00,72.0,54.4,29.93,WNW,284,9.2,11.5,54,0.00,BKN,,0.00,278.1,WeatherDisplay:10.37,2013-08-04 18:38:00,
2013-08-04 14:43:00,70.9,53.4,29.93,West,280,5.4,9.2,54,0.00,BKN,,0.00,933.8,WeatherDisplay:10.37,2013-08-04 18:43:00,
2013-08-04 14:48:00,71.2,54.2,29.93,NW,306,8.4,11.4,55,0.00,BKN,,0.00,519.7,WeatherDisplay:10.37,2013-08-04 18:48:00,
2013-08-04 14:53:00,71.8,54.7,29.92,NW,324,8.0,13.8,55,0.00,BKN,,0.00,351.2,WeatherDisplay:10.37,2013-08-04 18:53:00,
2013-08-04 14:58:00,71.6,55.6,29.93,WNW,294,8.7,11.5,57,0.00,BKN,,0.00,1152.3,WeatherDisplay:10.37,2013-08-04 18:58:00,
2013-08-04 15:03:00,72.7,55.1,29.92,WNW,287,7.6,11.5,54,0.00,BKN,,0.00,1113.9,WeatherDisplay:10.37,2013-08-04 19:03:00,
2013-08-04 15:08:00,72.3,54.2,29.92,NW,309,7.9,13.8,53,0.00,BKN,,0.00,1123.0,WeatherDisplay:10.37,2013-08-04 19:08:00,
2013-08-04 15:13:00,72.1,54.1,29.92,NNW,330,11.5,17.3,53,0.00,BKN,,0.00,1187.9,WeatherDisplay:10.37,2013-08-04 19:13:00,
2013-08-04 15:18:00,73.6,55.9,29.92,NW,316,7.6,12.7,54,0.00,BKN,,0.00,401.1,WeatherDisplay:10.37,2013-08-04 19:18:00,
2013-08-04 15:23:00,73.6,55.4,29.92,NW,313,8.5,12.7,53,0.00,BKN,,0.00,270.9,WeatherDisplay:10.37,2013-08-04 19:23:00,
2013-08-04 15:28:00,73.0,54.4,29.92,WNW,290,6.7,15.0,52,0.00,BKN,,0.00,1068.1,WeatherDisplay:10.37,2013-08-04 19:28:00,
2013-08-04 15:33:00,72.7,54.0,29.92,WNW,292,9.1,11.5,52,0.00,BKN,,0.00,1123.8,WeatherDisplay:10.37,2013-08-04 19:33:00,
2013-08-04 15:38:00,72.1,52.5,29.92,NW,312,10.1,15.0,50,0.00,BKN,,0.00,329.8,WeatherDisplay:10.37,2013-08-04 19:38:00,
2013-08-04 15:43:00,72.7,53.5,29.92,West,275,9.8,16.1,51,0.00,BKN,,0.00,1019.3,WeatherDisplay:10.37,2013-08-04 19:43:00,
2013-08-04 15:48:00,73.6,54.9,29.92,WNW,293,6.8,11.6,52,0.00,BKN,,0.00,981.4,WeatherDisplay:10.37,2013-08-04 19:48:00,
2013-08-04 15:53:00,73.8,54.5,29.91,NW,322,7.3,10.4,51,0.00,BKN,,0.00,968.5,WeatherDisplay:10.37,2013-08-04 19:53:00,
2013-08-04 15:58:00,73.9,54.1,29.92,West,263,8.1,11.5,50,0.00,BKN,,0.00,1044.0,WeatherDisplay:10.37,2013-08-04 19:58:00,
2013-08-04 16:03:00,73.9,53.0,29.92,NW,308,8.5,15.0,48,0.00,BKN,,0.00,1082.6,WeatherDisplay:10.37,2013-08-04 20:03:00,
2013-08-04 16:08:00,75.0,54.0,29.92,WNW,299,4.6,11.5,48,0.00,BKN,,0.00,1005.0,WeatherDisplay:10.37,2013-08-04 20:08:00,
2013-08-04 16:13:00,74.8,54.9,29.92,NW,310,8.0,12.7,50,0.00,BKN,,0.00,1045.4,WeatherDisplay:10.37,2013-08-04 20:13:00,
2013-08-04 16:18:00,74.7,54.2,29.92,NNW,327,7.3,13.8,49,0.00,BKN,,0.00,972.9,WeatherDisplay:10.37,2013-08-04 20:18:00,
2013-08-04 16:23:00,75.4,56.0,29.91,NNW,334,5.4,9.7,51,0.00,BKN,,0.00,922.4,WeatherDisplay:10.37,2013-08-04 20:23:00,
2013-08-04 16:28:00,74.8,54.4,29.91,NW,318,8.9,12.7,49,0.00,BKN,,0.00,919.8,WeatherDisplay:10.37,2013-08-04 20:28:00,
2013-08-04 16:33:00,74.7,54.8,29.91,NW,326,6.1,15.0,50,0.00,BKN,,0.00,829.8,WeatherDisplay:10.37,2013-08-04 20:33:00,
2013-08-04 16:38:00,74.5,53.5,29.91,NW,322,9.7,13.8,48,0.00,BKN,,0.00,921.7,WeatherDisplay:10.37,2013-08-04 20:38:00,
2013-08-04 16:43:00,74.1,55.4,29.92,NNW,337,5.5,8.6,52,0.00,BKN,,0.00,904.4,WeatherDisplay:10.37,2013-08-04 20:43:00,
2013-08-04 16:48:00,73.4,52.5,29.92,WNW,299,10.0,13.8,48,0.00,BKN,,0.00,166.1,WeatherDisplay:10.37,2013-08-04 20:48:00,
2013-08-04 16:53:00,71.8,53.2,29.92,WNW,300,7.8,11.5,52,0.00,BKN,,0.00,248.7,WeatherDisplay:10.37,2013-08-04 20:53:00,
2013-08-04 16:58:00,71.4,53.9,29.92,NW,316,8.6,11.5,54,0.00,BKN,,0.00,238.3,WeatherDisplay:10.37,2013-08-04 20:58:00,
2013-08-04 17:03:00,70.9,53.4,29.92,NW,319,10.8,15.0,54,0.00,BKN,,0.00,289.0,WeatherDisplay:10.37,2013-08-04 21:03:00,
2013-08-04 17:08:00,69.8,52.9,29.92,West,274,8.3,11.5,55,0.00,BKN,,0.00,609.3,WeatherDisplay:10.37,2013-08-04 21:08:00,
2013-08-04 17:13:00,70.5,53.6,29.92,NW,319,9.7,16.1,55,0.00,BKN,,0.00,141.2,WeatherDisplay:10.37,2013-08-04 21:13:00,
2013-08-04 17:18:00,70.7,53.7,29.92,NW,321,6.9,10.7,55,0.00,BKN,,0.00,151.3,WeatherDisplay:10.37,2013-08-04 21:18:00,
2013-08-04 17:23:00,71.4,53.4,29.92,NW,310,7.9,10.4,53,0.00,BKN,,0.00,227.2,WeatherDisplay:10.37,2013-08-04 21:23:00,
2013-08-04 17:28:00,70.9,52.4,29.92,WNW,296,10.3,13.8,52,0.00,BKN,,0.00,146.8,WeatherDisplay:10.37,2013-08-04 21:28:00,
2013-08-04 17:33:00,70.7,52.7,29.92,NW,324,8.3,11.5,53,0.00,BKN,,0.00,182.2,WeatherDisplay:10.37,2013-08-04 21:33:00,
2013-08-04 17:38:00,70.3,52.4,29.91,NW,318,8.5,11.5,53,0.00,BKN,,0.00,125.8,WeatherDisplay:10.37,2013-08-04 21:38:00,
2013-08-04 17:43:00,70.0,52.1,29.91,NW,304,7.5,10.4,53,0.00,BKN,,0.00,123.6,WeatherDisplay:10.37,2013-08-04 21:43:00,
2013-08-04 17:48:00,70.0,51.5,29.91,NW,311,9.0,13.8,52,0.00,BKN,,0.00,103.0,WeatherDisplay:10.37,2013-08-04 21:48:00,
2013-08-04 17:49:00,70.0,51.5,29.91,WNW,293,9.0,15.0,52,0.00,BKN,,0.00,96.2,WeatherDisplay:10.37,2013-08-04 21:49:00,
2013-08-04 17:54:00,70.0,51.0,29.92,West,279,9.4,16.1,51,0.00,BKN,,0.00,88.2,WeatherDisplay:10.37,2013-08-04 21:54:00,
2013-08-04 17:59:00,70.7,52.2,29.91,WSW,249,6.0,10.4,52,0.00,BKN,,0.00,83.9,WeatherDisplay:10.37,2013-08-04 21:59:00,
2013-08-04 18:04:00,70.2,51.7,29.92,West,269,8.7,13.8,52,0.00,BKN,,0.00,77.8,WeatherDisplay:10.37,2013-08-04 22:04:00,
2013-08-04 18:09:00,70.3,51.9,29.92,West,273,9.9,17.3,52,0.00,BKN,,0.00,78.8,WeatherDisplay:10.37,2013-08-04 22:09:00,
2013-08-04 18:14:00,70.0,52.1,29.92,NNW,330,8.4,11.5,53,0.00,BKN,,0.00,73.0,WeatherDisplay:10.37,2013-08-04 22:14:00,
2013-08-04 18:19:00,70.0,52.1,29.92,West,281,3.8,8.1,53,0.00,SCT,BKN,0.00,71.3,WeatherDisplay:10.37,2013-08-04 22:19:00,
2013-08-04 18:24:00,70.3,51.9,29.91,NNW,330,7.1,10.2,52,0.00,SCT,BKN,0.00,65.7,WeatherDisplay:10.37,2013-08-04 22:24:00,
2013-08-04 18:29:00,70.5,51.5,29.92,WNW,303,7.9,11.5,51,0.00,SCT,BKN,0.00,62.6,WeatherDisplay:10.37,2013-08-04 22:29:00,
2013-08-04 18:34:00,70.0,51.5,29.92,NW,311,8.4,10.5,52,0.00,SCT,BKN,0.00,58.8,WeatherDisplay:10.37,2013-08-04 22:34:00,
2013-08-04 18:39:00,70.2,51.7,29.92,NW,326,7.3,13.8,52,0.00,SCT,BKN,0.00,57.3,WeatherDisplay:10.37,2013-08-04 22:39:00,
2013-08-04 18:44:00,69.6,50.7,29.92,North,352,7.9,12.7,51,0.00,SCT,BKN,0.00,52.2,WeatherDisplay:10.37,2013-08-04 22:44:00,
2013-08-04 18:49:00,69.4,51.0,29.92,WNW,290,6.7,10.4,52,0.00,SCT,BKN,0.00,49.4,WeatherDisplay:10.37,2013-08-04 22:49:00,
2013-08-04 18:54:00,69.8,52.4,29.92,West,278,4.9,6.9,54,0.00,SCT,BKN,0.00,47.9,WeatherDisplay:10.37,2013-08-04 22:54:00,
2013-08-04 18:59:00,70.0,51.5,29.93,West,281,7.0,11.5,52,0.00,SCT,BKN,0.00,44.6,WeatherDisplay:10.37,2013-08-04 22:59:00,
2013-08-04 19:04:00,69.4,51.6,29.92,West,277,6.1,10.4,53,0.00,SCT,BKN,0.00,40.0,WeatherDisplay:10.37,2013-08-04 23:04:00,
2013-08-04 19:09:00,69.4,51.6,29.92,WNW,291,6.1,11.5,53,0.00,SCT,BKN,0.00,37.5,WeatherDisplay:10.37,2013-08-04 23:09:00,
2013-08-04 19:14:00,69.3,51.9,29.92,NW,324,5.4,8.1,54,0.00,SCT,BKN,0.00,35.1,WeatherDisplay:10.37,2013-08-04 23:14:00,
2013-08-04 19:19:00,69.4,52.1,29.92,WNW,283,7.2,10.4,54,0.00,SCT,BKN,0.00,33.8,WeatherDisplay:10.37,2013-08-04 23:19:00,
2013-08-04 19:24:00,69.1,51.7,29.93,WNW,295,8.2,10.2,54,0.00,SCT,BKN,0.00,57.0,WeatherDisplay:10.37,2013-08-04 23:24:00,
2013-08-04 19:29:00,68.7,51.4,29.93,NW,319,4.8,8.1,54,0.00,SCT,BKN,0.00,37.8,WeatherDisplay:10.37,2013-08-04 23:29:00,
2013-08-04 19:34:00,68.5,51.7,29.93,NW,321,4.8,8.1,55,0.00,SCT,BKN,0.00,25.0,WeatherDisplay:10.37,2013-08-04 23:34:00,
2013-08-04 19:39:00,68.4,51.1,29.93,WNW,293,3.4,6.9,54,0.00,SCT,BKN,0.00,22.5,WeatherDisplay:10.37,2013-08-04 23:39:00,
2013-08-04 19:44:00,68.2,51.4,29.93,NW,313,2.8,5.4,55,0.00,SCT,BKN,0.00,20.6,WeatherDisplay:10.37,2013-08-04 23:44:00,
2013-08-04 19:49:00,68.2,49.9,29.93,WNW,296,2.5,5.8,52,0.00,SCT,BKN,0.00,17.5,WeatherDisplay:10.37,2013-08-04 23:49:00,
2013-08-04 19:54:00,67.3,48.0,29.94,WNW,302,6.8,9.2,50,0.00,SCT,BKN,0.00,15.7,WeatherDisplay:10.37,2013-08-04 23:54:00,
2013-08-04 19:59:00,67.5,48.7,29.93,WNW,300,3.3,5.8,51,0.00,SCT,BKN,0.00,15.0,WeatherDisplay:10.37,2013-08-04 23:59:00,
2013-08-04 20:04:00,66.9,48.2,29.93,WNW,295,4.3,6.9,51,0.00,SCT,BKN,0.00,11.1,WeatherDisplay:10.37,2013-08-05 00:04:00,
2013-08-04 20:09:00,66.7,48.0,29.93,NW,311,2.7,4.6,51,0.00,SCT,BKN,0.00,9.8,WeatherDisplay:10.37,2013-08-05 00:09:00,
2013-08-04 20:14:00,66.2,48.6,29.94,NNW,327,3.9,5.8,53,0.00,SCT,BKN,0.00,10.9,WeatherDisplay:10.37,2013-08-05 00:14:00,
2013-08-04 20:19:00,65.8,48.7,29.94,West,278,2.8,4.6,54,0.00,SCT,BKN,0.00,3.8,WeatherDisplay:10.37,2013-08-05 00:19:00,
2013-08-04 20:24:00,65.1,49.0,29.94,WNW,283,2.2,6.9,56,0.00,SCT,BKN,0.00,2.1,WeatherDisplay:10.37,2013-08-05 00:24:00,
2013-08-04 20:29:00,64.9,49.8,29.95,WNW,289,2.4,6.9,58,0.00,SCT,BKN,0.00,0.5,WeatherDisplay:10.37,2013-08-05 00:29:00,
2013-08-04 20:34:00,64.6,49.9,29.94,WNW,288,1.8,3.5,59,0.00,SCT,BKN,0.00,0.5,WeatherDisplay:10.37,2013-08-05 00:34:00,
2013-08-04 20:39:00,64.2,50.0,29.95,NNW,338,2.1,3.2,60,0.00,SCT,BKN,0.00,0.0,WeatherDisplay:10.37,2013-08-05 00:39:00,
2013-08-04 20:44:00,64.0,50.8,29.94,NW,315,1.9,3.5,62,0.00,SCT,BKN,0.00,0.4,WeatherDisplay:10.37,2013-08-05 00:44:00,
2013-08-04 20:49:00,63.5,50.7,29.95,WNW,300,3.1,6.9,63,0.00,SCT,BKN,0.00,0.0,WeatherDisplay:10.37,2013-08-05 00:49:00,
2013-08-04 20:54:00,63.3,50.5,29.95,NW,317,3.3,6.9,63,0.00,SCT,BKN,0.00,0.0,WeatherDisplay:10.37,2013-08-05 00:54:00,
2013-08-04 20:59:00,63.3,50.9,29.95,WNW,297,2.8,3.5,64,0.00,SCT,BKN,0.00,0.0,WeatherDisplay:10.37,2013-08-05 00:59:00,
2013-08-04 21:04:00,63.1,51.2,29.95,WNW,291,1.7,2.3,65,0.00,SCT,BKN,0.00,0.0,WeatherDisplay:10.37,2013-08-05 01:04:00,
2013-08-04 21:09:00,62.8,50.8,29.95,WNW,289,3.2,5.8,65,0.00,SCT,BKN,0.00,0.0,WeatherDisplay:10.37,2013-08-05 01:09:00,
2013-08-04 21:14:00,62.8,51.2,29.95,WNW,301,1.9,3.5,66,0.00,SCT,BKN,0.00,0.0,WeatherDisplay:10.37,2013-08-05 01:14:00,
2013-08-04 21:19:00,62.8,51.7,29.95,NW,323,2.1,5.8,67,0.00,SCT,BKN,0.00,0.0,WeatherDisplay:10.37,2013-08-05 01:19:00,
2013-08-04 21:24:00,62.4,51.3,29.95,WNW,289,1.8,4.6,67,0.00,SCT,BKN,0.00,0.0,WeatherDisplay:10.37,2013-08-05 01:24:00,
2013-08-04 21:29:00,62.6,51.9,29.96,NW,320,0.6,2.3,68,0.00,SCT,BKN,0.00,0.0,WeatherDisplay:10.37,2013-08-05 01:29:00,
2013-08-04 21:34:00,62.4,51.7,29.96,WNW,292,0.8,2.3,68,0.00,SCT,BKN,0.00,0.0,WeatherDisplay:10.37,2013-08-05 01:34:00,
2013-08-04 21:39:00,62.2,51.5,29.96,WNW,294,1.3,3.5,68,0.00,SCT,BKN,0.00,0.0,WeatherDisplay:10.37,2013-08-05 01:39:00,
2013-08-04 21:44:00,62.1,51.8,29.96,WNW,300,1.3,3.5,69,0.00,SCT,BKN,0.00,0.0,WeatherDisplay:10.37,2013-08-05 01:44:00,
2013-08-04 21:49:00,61.9,52.0,29.96,WNW,292,1.6,4.6,70,0.00,SCT,BKN,0.00,0.0,WeatherDisplay:10.37,2013-08-05 01:49:00,
2013-08-04 21:54:00,61.5,51.6,29.96,West,273,1.5,3.5,70,0.00,SCT,BKN,0.00,0.0,WeatherDisplay:10.37,2013-08-05 01:54:00,
2013-08-04 21:59:00,61.5,52.0,29.96,WNW,288,1.8,4.6,71,0.00,SCT,BKN,0.00,0.0,WeatherDisplay:10.37,2013-08-05 01:59:00,
2013-08-04 22:04:00,61.3,51.9,29.96,WNW,283,1.5,3.5,71,0.00,SCT,BKN,0.00,0.0,WeatherDisplay:10.37,2013-08-05 02:04:00,
2013-08-04 22:09:00,61.3,52.2,29.96,WNW,289,0.9,3.5,72,0.00,SCT,BKN,0.00,0.0,WeatherDisplay:10.37,2013-08-05 02:09:00,
2013-08-04 22:14:00,61.3,52.2,29.96,NW,309,0.5,4.6,72,0.00,SCT,BKN,0.00,0.0,WeatherDisplay:10.37,2013-08-05 02:14:00,
2013-08-04 22:19:00,61.3,52.2,29.96,WNW,291,0.9,1.1,72,0.00,SCT,BKN,0.00,0.0,WeatherDisplay:10.37,2013-08-05 02:19:00,
2013-08-04 22:24:00,61.0,51.9,29.96,NW,309,1.6,3.2,72,0.00,SCT,BKN,0.00,0.0,WeatherDisplay:10.37,2013-08-05 02:24:00,
2013-08-04 22:29:00,61.0,51.9,29.97,West,279,1.8,4.6,72,0.00,SCT,BKN,0.00,0.0,WeatherDisplay:10.37,2013-08-05 02:29:00,
2013-08-04 22:34:00,61.0,52.3,29.96,WNW,290,1.6,4.6,73,0.00,SCT,BKN,0.00,0.0,WeatherDisplay:10.37,2013-08-05 02:34:00,
2013-08-04 22:39:00,60.8,52.1,29.96,WNW,288,1.4,3.5,73,0.00,SCT,BKN,0.00,0.0,WeatherDisplay:10.37,2013-08-05 02:39:00,
2013-08-04 22:44:00,60.8,52.1,29.96,WNW,293,0.9,3.5,73,0.00,SCT,BKN,0.00,0.0,WeatherDisplay:10.37,2013-08-05 02:44:00,
2013-08-04 22:49:00,60.8,52.1,29.96,WNW,292,1.9,5.8,73,0.00,SCT,BKN,0.00,0.0,WeatherDisplay:10.37,2013-08-05 02:49:00,
2013-08-04 22:54:00,60.8,52.1,29.96,West,270,1.2,2.3,73,0.00,SCT,BKN,0.00,0.0,WeatherDisplay:10.37,2013-08-05 02:54:00,
2013-08-04 22:59:00,60.4,51.7,29.96,WNW,288,1.8,4.6,73,0.00,SCT,BKN,0.00,0.0,WeatherDisplay:10.37,2013-08-05 02:59:00,
2013-08-04 23:04:00,60.6,51.9,29.96,NW,312,0.0,1.1,73,0.00,SCT,BKN,0.00,0.0,WeatherDisplay:10.37,2013-08-05 03:04:00,
2013-08-04 23:09:00,60.8,52.1,29.96,NW,317,0.7,3.5,73,0.00,SCT,BKN,0.00,0.0,WeatherDisplay:10.37,2013-08-05 03:09:00,
2013-08-04 23:14:00,60.6,51.9,29.96,NW,304,0.7,3.5,73,0.00,SCT,BKN,0.00,0.0,WeatherDisplay:10.37,2013-08-05 03:14:00,
2013-08-04 23:19:00,60.6,51.9,29.97,WNW,300,0.6,1.1,73,0.00,FEW,BKN,0.00,0.0,WeatherDisplay:10.37,2013-08-05 03:19:00,
2013-08-04 23:24:00,60.8,52.1,29.96,WNW,298,0.0,0.0,73,0.00,FEW,BKN,0.00,0.0,WeatherDisplay:10.37,2013-08-05 03:24:00,
2013-08-04 23:29:00,60.6,51.9,29.96,WNW,285,0.3,3.5,73,0.00,FEW,BKN,0.00,0.0,WeatherDisplay:10.37,2013-08-05 03:29:00,
2013-08-04 23:34:00,60.4,51.7,29.96,WNW,291,0.0,0.0,73,0.00,FEW,BKN,0.00,0.0,WeatherDisplay:10.37,2013-08-05 03:34:00,
2013-08-04 23:39:00,60.1,51.8,29.97,WSW,256,0.0,0.0,74,0.00,FEW,BKN,0.00,0.0,WeatherDisplay:10.37,2013-08-05 03:39:00,
2013-08-04 23:44:00,59.9,52.0,29.97,WSW,245,0.0,0.0,75,0.00,FEW,BKN,0.00,0.0,WeatherDisplay:10.37,2013-08-05 03:44:00,
2013-08-04 23:49:00,59.5,51.6,29.97,South,187,0.0,0.0,75,0.00,FEW,BKN,0.00,0.0,WeatherDisplay:10.37,2013-08-05 03:49:00,
2013-08-04 23:54:00,59.0,51.8,29.97,South,186,0.1,1.1,77,0.00,FEW,BKN,0.00,0.0,WeatherDisplay:10.37,2013-08-05 03:54:00,
2013-08-04 23:59:00,58.3,51.4,29.98,South,182,0.0,1.1,78,0.00,FEW,BKN,0.00,0.0,WeatherDisplay:10.37,2013-08-05 03:59:00,